Maynard, Massachusetts
Current Conditions -  °F | °C
As of 10:56 AM on Monday 24 Nov 2014 (Local Time) from KBED Reporting Station
Light Rain Light Rain  
Wind Chill: 62°   Ceiling: 1200
Heat Index: 62°   Visibility: 3mi
Dew Point: 60°   Wind: 15mph
Humidity: 93%   Direction: 180°S
Pressure: 29.66"   Gusts: 31mph
Location:  42.43°N, 71.46°W
Report Text: KBED 241556Z 18013G27KT 3SM -RA BR BKN012 OVC024 17/16 A2966 RMK AO2 PK WND 18027/1525 RAE33B52 SLP057 P0001 T01670156
Loading
Personal Weather Stations






























Interactive Weather Map New forecast layout! Learn more

10-Day Weather Forecast

Advertisements
Track Severe Weather on mobile